createdAt,value
2017-06-18T00:01:23.686Z,63.80
2017-06-18T00:03:51.260Z,63.70
2017-06-18T00:06:18.862Z,63.60
2017-06-18T00:08:46.441Z,63.60
2017-06-18T00:11:14.024Z,63.60
2017-06-18T00:13:41.609Z,63.80
2017-06-18T00:16:09.186Z,63.70
2017-06-18T00:18:36.764Z,64.30
2017-06-18T00:21:04.332Z,64.50
2017-06-18T00:23:31.928Z,64.90
2017-06-18T00:25:59.514Z,65.00
2017-06-18T00:28:27.084Z,66.00
2017-06-18T00:30:54.668Z,65.00
2017-06-18T00:33:22.239Z,65.10
2017-06-18T00:35:49.829Z,65.20
2017-06-18T00:38:17.407Z,65.30
2017-06-18T00:40:45.007Z,65.30
2017-06-18T00:43:12.585Z,65.60
2017-06-18T00:45:40.164Z,65.70
2017-06-18T00:48:07.740Z,65.70
2017-06-18T00:50:35.304Z,65.60
2017-06-18T00:53:02.878Z,65.30
2017-06-18T00:55:30.458Z,65.40
2017-06-18T00:57:58.046Z,65.20
2017-06-18T01:00:25.621Z,65.40
2017-06-18T01:02:53.198Z,65.20
2017-06-18T01:05:20.770Z,65.10
2017-06-18T01:07:48.336Z,64.90
2017-06-18T01:10:15.926Z,64.80
2017-06-18T01:12:43.501Z,65.00
2017-06-18T01:15:11.105Z,65.20
2017-06-18T01:17:38.685Z,65.90
2017-06-18T01:20:06.256Z,65.80
2017-06-18T01:22:33.847Z,65.90
2017-06-18T01:25:02.192Z,66.70
2017-06-18T01:27:29.789Z,66.30
2017-06-18T01:29:58.130Z,66.30
2017-06-18T01:32:25.723Z,66.30
2017-06-18T01:34:53.295Z,66.30
2017-06-18T01:37:20.871Z,66.00
2017-06-18T01:39:48.553Z,65.90
2017-06-18T01:42:16.136Z,65.80
2017-06-18T01:44:43.710Z,66.00
2017-06-18T01:47:11.297Z,65.70
2017-06-18T01:49:38.904Z,65.80
2017-06-18T01:52:06.507Z,65.80
2017-06-18T01:54:34.108Z,66.10
2017-06-18T01:57:01.697Z,66.10
2017-06-18T01:59:29.270Z,66.10
2017-06-18T02:01:57.629Z,66.30
2017-06-18T02:04:25.214Z,66.10
2017-06-18T02:06:53.580Z,67.10
2017-06-18T02:09:21.161Z,67.00
2017-06-18T02:11:48.761Z,67.30
2017-06-18T02:14:16.364Z,67.20
2017-06-18T02:16:44.720Z,68.40
2017-06-18T02:19:12.311Z,67.60
2017-06-18T02:21:40.663Z,67.80
2017-06-18T02:24:08.250Z,67.80
2017-06-18T02:26:36.601Z,68.30
2017-06-18T02:29:04.182Z,68.20
2017-06-18T02:31:32.533Z,68.70
2017-06-18T02:34:00.874Z,69.20
2017-06-18T02:36:28.486Z,68.90
2017-06-18T02:38:56.068Z,69.30
2017-06-18T02:41:23.656Z,69.50
2017-06-18T02:43:51.232Z,70.00
2017-06-18T02:46:18.821Z,70.20
2017-06-18T02:48:46.429Z,70.50
2017-06-18T02:51:13.999Z,70.60
2017-06-18T02:53:41.584Z,71.10
2017-06-18T02:56:09.183Z,71.50
2017-06-18T02:58:36.768Z,71.70
2017-06-18T03:01:04.368Z,72.20
2017-06-18T03:03:31.948Z,72.40
2017-06-18T03:05:59.568Z,72.10
2017-06-18T03:08:27.158Z,71.90
2017-06-18T03:10:54.723Z,72.10
2017-06-18T03:13:22.327Z,72.40
2017-06-18T03:15:49.916Z,72.60
2017-06-18T03:18:17.491Z,72.90
2017-06-18T03:20:45.098Z,73.00
2017-06-18T03:23:18.245Z,72.70
2017-06-18T03:25:45.860Z,73.10
2017-06-18T03:28:13.436Z,73.30
2017-06-18T03:30:41.008Z,73.00
2017-06-18T03:33:08.595Z,73.30
2017-06-18T03:35:36.190Z,73.40
2017-06-18T03:38:03.771Z,73.50
2017-06-18T03:40:31.367Z,73.30
2017-06-18T03:42:58.979Z,73.20
2017-06-18T03:45:26.567Z,73.50
2017-06-18T03:47:54.171Z,73.30
2017-06-18T03:50:21.765Z,73.60
2017-06-18T03:52:49.356Z,73.60
2017-06-18T03:55:16.948Z,73.90
2017-06-18T03:57:44.524Z,74.00
2017-06-18T04:00:12.135Z,74.20
2017-06-18T04:02:40.479Z,74.40
2017-06-18T04:05:08.062Z,74.40
2017-06-18T04:07:36.415Z,74.00
2017-06-18T04:10:04.040Z,74.00
2017-06-18T04:12:31.647Z,73.90
2017-06-18T04:14:59.247Z,73.80
2017-06-18T04:17:26.866Z,74.20
2017-06-18T04:19:54.478Z,73.90
2017-06-18T04:22:22.092Z,73.90
2017-06-18T04:24:49.698Z,74.00
2017-06-18T04:27:17.292Z,73.60
2017-06-18T04:29:44.905Z,73.10
2017-06-18T04:32:12.489Z,72.90
2017-06-18T04:34:40.086Z,72.80
2017-06-18T04:37:07.714Z,72.70
2017-06-18T04:39:35.330Z,72.40
2017-06-18T04:42:02.922Z,72.40
2017-06-18T04:44:30.533Z,72.60
2017-06-18T04:46:58.147Z,71.50
2017-06-18T04:49:25.752Z,71.00
2017-06-18T04:51:53.372Z,70.80
2017-06-18T04:54:20.953Z,70.40
2017-06-18T04:56:48.572Z,70.30
2017-06-18T04:59:16.853Z,70.60
2017-06-18T05:01:44.412Z,70.20
2017-06-18T05:04:11.998Z,69.60
2017-06-18T05:06:39.562Z,69.20
2017-06-18T05:09:07.143Z,69.00
2017-06-18T05:11:34.743Z,69.00
2017-06-18T05:14:02.354Z,69.00
2017-06-18T05:16:29.928Z,68.20
2017-06-18T05:18:58.257Z,68.70
2017-06-18T05:21:25.856Z,68.00
2017-06-18T05:23:54.253Z,67.90
2017-06-18T05:26:22.619Z,67.20
2017-06-18T05:28:50.966Z,67.50
2017-06-18T05:31:18.536Z,67.30
2017-06-18T05:33:46.126Z,67.10
2017-06-18T05:36:13.698Z,66.60
2017-06-18T05:38:41.295Z,66.00
2017-06-18T05:41:08.873Z,65.60
2017-06-18T05:43:36.477Z,66.50
2017-06-18T05:46:04.037Z,66.50
2017-06-18T05:48:31.615Z,65.80
2017-06-18T05:50:59.205Z,66.20
2017-06-18T05:53:26.773Z,65.20
2017-06-18T05:55:54.396Z,66.00
2017-06-18T05:58:21.996Z,66.00
2017-06-18T06:00:49.596Z,65.90
2017-06-18T06:03:17.172Z,66.00
2017-06-18T06:05:44.752Z,64.90
2017-06-18T06:08:12.341Z,65.10
2017-06-18T06:10:39.914Z,64.80
2017-06-18T06:13:07.518Z,65.10
2017-06-18T06:15:35.104Z,65.20
2017-06-18T06:18:02.689Z,65.20
2017-06-18T06:20:31.049Z,63.20
2017-06-18T06:22:58.619Z,63.10
2017-06-18T06:25:26.969Z,63.30
2017-06-18T06:27:54.544Z,63.20
2017-06-18T06:30:22.151Z,61.70
2017-06-18T06:32:49.724Z,59.80
2017-06-18T06:35:17.296Z,58.90
2017-06-18T06:37:44.883Z,58.70
2017-06-18T06:40:12.458Z,59.80
2017-06-18T06:42:40.053Z,57.60
2017-06-18T06:45:07.626Z,57.20
2017-06-18T06:47:35.231Z,57.20
2017-06-18T06:50:02.823Z,57.00
2017-06-18T06:52:30.396Z,57.20
2017-06-18T06:54:57.993Z,57.10
2017-06-18T06:57:26.347Z,56.60
2017-06-18T06:59:53.956Z,56.70
2017-06-18T07:02:21.529Z,56.50
2017-06-18T07:04:49.209Z,56.10
2017-06-18T07:07:16.796Z,54.80
2017-06-18T07:09:44.378Z,56.00
2017-06-18T07:12:11.970Z,54.60
2017-06-18T07:14:39.550Z,53.00
2017-06-18T07:17:07.142Z,53.00
2017-06-18T07:19:34.724Z,52.90
2017-06-18T07:22:02.326Z,52.70
2017-06-18T07:24:29.896Z,55.00
2017-06-18T07:26:57.490Z,54.20
2017-06-18T07:29:25.099Z,54.60
2017-06-18T07:31:52.691Z,54.00
2017-06-18T07:34:20.306Z,54.60
2017-06-18T07:36:47.910Z,53.80
2017-06-18T07:39:15.505Z,54.00
2017-06-18T07:41:43.107Z,53.90
2017-06-18T07:44:10.674Z,55.00
2017-06-18T07:46:38.250Z,54.20
2017-06-18T07:49:05.813Z,54.20
2017-06-18T07:51:33.417Z,53.20
2017-06-18T07:54:01.012Z,52.70
2017-06-18T07:56:28.582Z,53.40
2017-06-18T07:58:56.171Z,53.30
2017-06-18T08:01:23.764Z,53.80
2017-06-18T08:03:51.352Z,52.80
2017-06-18T08:06:18.915Z,53.00
2017-06-18T08:08:47.485Z,53.00
2017-06-18T08:11:15.057Z,53.30
2017-06-18T08:13:42.632Z,52.70
2017-06-18T08:16:10.216Z,52.60
2017-06-18T08:18:37.791Z,52.00
2017-06-18T08:21:05.387Z,50.00
2017-06-18T08:23:32.987Z,49.00
2017-06-18T08:26:00.568Z,48.30
2017-06-18T08:28:28.153Z,48.00
2017-06-18T08:30:55.717Z,46.90
2017-06-18T08:33:23.307Z,46.80
2017-06-18T08:35:50.909Z,46.80
2017-06-18T08:38:18.524Z,46.50
2017-06-18T08:40:46.097Z,44.90
2017-06-18T08:43:14.425Z,45.50
2017-06-18T08:45:42.025Z,45.40
2017-06-18T08:48:09.609Z,44.40
2017-06-18T08:50:37.203Z,44.20
2017-06-18T08:53:04.767Z,45.30
2017-06-18T08:55:32.364Z,46.20
2017-06-18T08:57:59.935Z,46.10
2017-06-18T09:00:28.282Z,47.60
2017-06-18T09:02:55.896Z,47.50
2017-06-18T09:05:23.477Z,46.20
2017-06-18T09:07:51.140Z,44.40
2017-06-18T09:10:18.731Z,43.90
2017-06-18T09:12:46.344Z,43.50
2017-06-18T09:15:13.912Z,43.60
2017-06-18T09:17:41.477Z,45.00
2017-06-18T09:20:09.047Z,44.50
2017-06-18T09:22:36.655Z,43.50
2017-06-18T09:25:04.254Z,43.90
2017-06-18T09:27:31.857Z,43.70
2017-06-18T09:29:59.437Z,44.30
2017-06-18T09:32:27.064Z,43.40
2017-06-18T09:34:54.660Z,44.70
2017-06-18T09:37:22.261Z,43.30
2017-06-18T09:39:49.841Z,43.00
2017-06-18T09:42:17.442Z,44.00
2017-06-18T09:44:45.044Z,43.80
2017-06-18T09:47:12.609Z,43.90
2017-06-18T09:49:40.212Z,43.40
2017-06-18T09:52:07.803Z,44.50
2017-06-18T09:54:35.393Z,44.20
2017-06-18T09:57:02.955Z,41.90
2017-06-18T09:59:30.934Z,40.50
2017-06-18T10:01:59.293Z,40.90
2017-06-18T10:04:26.848Z,40.90
2017-06-18T10:06:54.449Z,40.60
2017-06-18T10:09:22.023Z,41.50
2017-06-18T10:11:49.597Z,41.60
2017-06-18T10:14:17.173Z,41.80
2017-06-18T10:16:44.763Z,42.60
2017-06-18T10:19:13.100Z,41.50
2017-06-18T10:21:46.261Z,40.90
2017-06-18T10:24:13.825Z,40.30
2017-06-18T10:26:41.403Z,41.90
2017-06-18T10:29:08.980Z,40.20
2017-06-18T10:31:36.571Z,40.00
2017-06-18T10:34:04.916Z,41.10
2017-06-18T10:36:32.519Z,41.10
2017-06-18T10:39:00.846Z,39.10
2017-06-18T10:41:28.407Z,39.10
2017-06-18T10:43:55.973Z,37.40
2017-06-18T10:46:23.550Z,38.10
2017-06-18T10:48:51.125Z,37.50
2017-06-18T10:51:19.468Z,35.40
2017-06-18T10:53:47.032Z,35.40
2017-06-18T10:56:14.597Z,36.00
2017-06-18T10:58:42.187Z,36.10
2017-06-18T11:01:09.795Z,36.40
2017-06-18T11:04:05.397Z,38.70
2017-06-18T11:06:32.981Z,38.90
2017-06-18T11:09:00.565Z,38.00
2017-06-18T11:11:28.931Z,36.10
2017-06-18T11:13:56.510Z,36.10
2017-06-18T11:16:24.869Z,37.10
2017-06-18T11:18:52.430Z,37.00
2017-06-18T11:21:20.044Z,36.70
2017-06-18T11:23:47.633Z,37.00
2017-06-18T11:26:15.209Z,37.90
2017-06-18T11:28:42.788Z,36.40
2017-06-18T11:31:10.392Z,37.00
2017-06-18T11:33:37.970Z,37.20
2017-06-18T11:36:05.528Z,37.40
2017-06-18T11:38:33.125Z,35.90
2017-06-18T11:41:00.690Z,36.80
2017-06-18T11:43:28.265Z,35.70
2017-06-18T11:45:55.848Z,36.30
2017-06-18T11:48:23.455Z,37.20
2017-06-18T11:50:51.839Z,37.50
2017-06-18T11:53:19.405Z,37.40
2017-06-18T11:55:46.973Z,37.30
2017-06-18T11:58:14.561Z,36.30
2017-06-18T12:00:42.145Z,36.00
2017-06-18T12:03:09.721Z,35.40
2017-06-18T12:05:38.043Z,35.40
2017-06-18T12:08:05.638Z,34.70
2017-06-18T12:10:33.230Z,38.10
2017-06-18T12:13:00.806Z,35.80
2017-06-18T12:15:28.421Z,34.40
2017-06-18T12:17:56.000Z,34.00
2017-06-18T12:20:24.371Z,33.80
2017-06-18T12:22:51.938Z,33.80
2017-06-18T12:25:20.262Z,33.30
2017-06-18T12:27:47.841Z,33.30
2017-06-18T12:30:15.417Z,33.60
2017-06-18T12:32:43.784Z,33.10
2017-06-18T12:35:11.377Z,33.10
2017-06-18T12:37:38.996Z,32.80
2017-06-18T12:40:06.574Z,32.40
2017-06-18T12:42:34.916Z,32.30
2017-06-18T12:45:02.487Z,32.30
2017-06-18T12:47:30.052Z,32.80
2017-06-18T12:49:57.637Z,32.50
2017-06-18T12:52:25.973Z,31.90
2017-06-18T12:54:53.577Z,31.90
2017-06-18T12:57:21.917Z,32.50
2017-06-18T12:59:49.471Z,32.40
2017-06-18T13:02:17.040Z,32.40
2017-06-18T13:04:44.594Z,32.40
2017-06-18T13:07:12.178Z,32.50
2017-06-18T13:09:40.539Z,31.70
2017-06-18T13:12:08.102Z,31.70
2017-06-18T13:14:35.694Z,31.10
2017-06-18T13:17:03.254Z,31.30
2017-06-18T13:19:30.850Z,31.10
2017-06-18T13:21:58.413Z,30.40
2017-06-18T13:24:25.989Z,30.70
2017-06-18T13:26:53.571Z,30.30
2017-06-18T13:29:21.135Z,31.20
2017-06-18T13:31:49.478Z,29.90
2017-06-18T13:34:17.053Z,29.90
2017-06-18T13:36:44.652Z,29.80
2017-06-18T13:39:12.234Z,29.80
2017-06-18T13:41:39.809Z,29.30
2017-06-18T13:44:07.440Z,30.00
2017-06-18T13:46:35.010Z,29.50
2017-06-18T13:49:02.599Z,28.50
2017-06-18T13:51:30.164Z,29.10
2017-06-18T13:53:58.667Z,29.10
2017-06-18T13:56:27.007Z,28.50
2017-06-18T13:58:54.617Z,28.50
2017-06-18T14:01:22.214Z,29.10
2017-06-18T14:03:49.785Z,29.50
2017-06-18T14:06:17.358Z,29.00
2017-06-18T14:08:44.924Z,28.90
2017-06-18T14:11:13.285Z,28.60
2017-06-18T14:13:40.865Z,28.30
2017-06-18T14:16:09.209Z,27.70
2017-06-18T14:18:36.813Z,27.70
2017-06-18T14:21:05.149Z,27.50
2017-06-18T14:23:32.765Z,27.50
2017-06-18T14:26:00.369Z,27.40
2017-06-18T14:28:27.957Z,27.40
2017-06-18T14:30:56.295Z,27.70
2017-06-18T14:33:23.860Z,27.70
2017-06-18T14:35:51.463Z,28.10
2017-06-18T14:38:19.050Z,26.20
2017-06-18T14:40:46.637Z,26.10
2017-06-18T14:43:14.207Z,26.10
2017-06-18T14:45:41.837Z,26.00
2017-06-18T14:48:09.428Z,26.70
2017-06-18T14:50:36.996Z,25.70
2017-06-18T14:53:05.347Z,25.40
2017-06-18T14:55:32.908Z,25.40
2017-06-18T14:58:00.489Z,24.70
2017-06-18T15:00:28.827Z,23.50
2017-06-18T15:02:56.443Z,23.50
2017-06-18T15:05:24.777Z,23.20
2017-06-18T15:07:52.355Z,23.10
2017-06-18T15:10:19.942Z,22.40
2017-06-18T15:12:48.286Z,19.80
2017-06-18T15:15:15.878Z,19.80
2017-06-18T15:17:44.219Z,18.00
2017-06-18T15:20:11.817Z,18.00
2017-06-18T15:22:40.159Z,14.90
2017-06-18T15:25:07.770Z,14.80
2017-06-18T15:27:35.361Z,14.00
2017-06-18T15:30:02.950Z,12.60
2017-06-18T15:32:30.533Z,12.30
2017-06-18T15:34:58.098Z,12.30
2017-06-18T15:37:25.691Z,11.90
2017-06-18T15:39:53.264Z,10.90
2017-06-18T15:42:20.879Z,10.50
2017-06-18T15:44:48.467Z,10.90
2017-06-18T15:47:16.027Z,11.10
2017-06-18T15:49:43.612Z,10.80
2017-06-18T15:52:11.198Z,10.30
2017-06-18T15:54:39.574Z,11.30
2017-06-18T15:57:08.077Z,11.30
2017-06-18T15:59:35.679Z,10.90
2017-06-18T16:02:03.255Z,11.10
2017-06-18T16:04:30.847Z,10.60
2017-06-18T16:06:58.472Z,11.00
2017-06-18T16:09:26.050Z,10.60
2017-06-18T16:11:54.421Z,11.80
2017-06-18T16:14:22.772Z,12.90
2017-06-18T16:16:50.398Z,12.90
2017-06-18T16:19:17.994Z,13.60
2017-06-18T16:21:45.570Z,14.90
2017-06-18T16:24:13.152Z,15.50
2017-06-18T16:26:40.729Z,15.10
2017-06-18T16:29:08.320Z,15.00
2017-06-18T16:31:35.905Z,16.50
2017-06-18T16:34:03.492Z,17.50
2017-06-18T16:36:31.090Z,18.90
2017-06-18T16:38:58.676Z,20.10
2017-06-18T16:41:26.270Z,21.30
2017-06-18T16:43:53.857Z,22.20
2017-06-18T16:46:21.460Z,23.30
2017-06-18T16:48:49.040Z,24.70
2017-06-18T16:51:16.622Z,25.10
2017-06-18T16:53:44.215Z,25.80
2017-06-18T16:56:11.803Z,26.40
2017-06-18T16:58:40.185Z,27.20
2017-06-18T17:01:08.547Z,27.60
2017-06-18T17:03:36.479Z,27.50
2017-06-18T17:06:04.066Z,28.00
2017-06-18T17:08:31.665Z,28.00
2017-06-18T17:10:59.266Z,28.40
2017-06-18T17:13:26.847Z,28.90
2017-06-18T17:15:54.437Z,29.00
2017-06-18T17:18:22.853Z,29.40
2017-06-18T17:20:50.456Z,29.40
2017-06-18T17:23:18.047Z,29.20
2017-06-18T17:25:45.611Z,29.90
2017-06-18T17:28:13.212Z,29.60
2017-06-18T17:30:40.766Z,29.80
2017-06-18T17:33:08.353Z,30.30
2017-06-18T17:35:36.720Z,30.50
2017-06-18T17:38:04.326Z,30.20
2017-06-18T17:40:31.915Z,30.00
2017-06-18T17:42:59.784Z,30.80
2017-06-18T17:45:29.265Z,30.40
2017-06-18T17:47:56.854Z,30.60
2017-06-18T17:50:24.422Z,30.80
2017-06-18T17:52:51.989Z,30.90
2017-06-18T17:55:19.600Z,31.20
2017-06-18T17:57:47.179Z,31.40
2017-06-18T18:00:14.753Z,31.80
2017-06-18T18:02:42.333Z,32.00
2017-06-18T18:05:10.666Z,33.30
2017-06-18T18:07:38.258Z,32.80
2017-06-18T18:10:05.838Z,33.10
2017-06-18T18:12:34.231Z,33.70
2017-06-18T18:15:01.812Z,33.70
2017-06-18T18:17:29.384Z,33.70
2017-06-18T18:19:56.989Z,33.90
2017-06-18T18:22:24.554Z,34.50
2017-06-18T18:24:52.958Z,34.20
2017-06-18T18:27:20.554Z,34.20
2017-06-18T18:29:48.325Z,34.50
2017-06-18T18:32:15.924Z,34.60
2017-06-18T18:34:43.512Z,34.90
2017-06-18T18:37:11.399Z,35.60
2017-06-18T18:39:38.986Z,35.40
2017-06-18T18:42:06.575Z,35.50
2017-06-18T18:44:34.166Z,35.80
2017-06-18T18:47:01.756Z,35.50
2017-06-18T18:49:29.354Z,35.70
2017-06-18T18:51:56.962Z,35.70
2017-06-18T18:54:24.544Z,35.80
2017-06-18T18:56:52.911Z,36.30
2017-06-18T18:59:20.544Z,36.20
2017-06-18T19:01:48.127Z,36.30
2017-06-18T19:04:15.795Z,37.00
2017-06-18T19:06:43.387Z,37.10
2017-06-18T19:09:10.986Z,36.90
2017-06-18T19:11:38.578Z,37.30
2017-06-18T19:14:07.001Z,37.60
2017-06-18T19:16:34.648Z,37.60
2017-06-18T19:19:02.237Z,37.90
2017-06-18T19:21:29.844Z,38.60
2017-06-18T19:23:58.216Z,38.80
2017-06-18T19:26:26.575Z,39.40
2017-06-18T19:28:54.186Z,39.30
2017-06-18T19:31:21.759Z,39.30
2017-06-18T19:33:49.375Z,39.50
2017-06-18T19:36:17.774Z,39.80
2017-06-18T19:38:45.370Z,39.70
2017-06-18T19:41:12.961Z,40.20
2017-06-18T19:43:40.563Z,40.50
2017-06-18T19:46:08.439Z,40.20
2017-06-18T19:48:36.018Z,40.50
2017-06-18T19:51:03.600Z,40.90
2017-06-18T19:53:31.193Z,40.80
2017-06-18T19:55:58.781Z,41.30
2017-06-18T19:58:26.360Z,41.10
2017-06-18T20:00:53.969Z,41.10
2017-06-18T20:03:21.577Z,41.40
2017-06-18T20:05:49.187Z,41.60
2017-06-18T20:08:16.764Z,41.80
2017-06-18T20:10:44.360Z,42.00
2017-06-18T20:13:11.942Z,42.10
2017-06-18T20:15:40.333Z,42.40
2017-06-18T20:18:07.951Z,42.30
2017-06-18T20:20:36.353Z,42.80
2017-06-18T20:23:04.988Z,43.00
2017-06-18T20:25:32.705Z,42.90
2017-06-18T20:28:01.068Z,43.60
2017-06-18T20:30:28.649Z,43.00
2017-06-18T20:32:57.000Z,43.30
2017-06-18T20:35:24.584Z,43.20
2017-06-18T20:37:53.216Z,43.50
2017-06-18T20:40:20.822Z,43.50
2017-06-18T20:42:48.429Z,43.60
2017-06-18T20:45:16.028Z,44.00
2017-06-18T20:47:44.378Z,43.80
2017-06-18T20:50:11.976Z,44.10
2017-06-18T20:52:39.567Z,44.90
2017-06-18T20:55:07.149Z,45.60
2017-06-18T20:57:34.757Z,45.80
2017-06-18T21:00:02.368Z,46.30
2017-06-18T21:02:29.973Z,46.70
2017-06-18T21:04:58.328Z,47.00
2017-06-18T21:07:25.940Z,47.00
2017-06-18T21:09:53.547Z,46.70
2017-06-18T21:12:21.134Z,47.20
2017-06-18T21:14:48.728Z,47.30
2017-06-18T21:17:16.332Z,47.60
2017-06-18T21:19:43.972Z,47.80
2017-06-18T21:22:11.554Z,48.20
2017-06-18T21:24:39.128Z,48.00
2017-06-18T21:27:07.513Z,48.20
2017-06-18T21:29:35.095Z,48.10
2017-06-18T21:32:02.781Z,48.50
2017-06-18T21:34:30.487Z,49.00
2017-06-18T21:36:58.424Z,49.60
2017-06-18T21:39:26.036Z,49.70
2017-06-18T21:41:53.650Z,50.00
2017-06-18T21:44:21.459Z,49.90
2017-06-18T21:46:49.029Z,50.30
2017-06-18T21:49:16.637Z,50.40
2017-06-18T21:51:44.208Z,50.30
2017-06-18T21:54:12.589Z,50.70
2017-06-18T21:56:40.151Z,50.50
2017-06-18T21:59:07.738Z,51.00
2017-06-18T22:01:35.327Z,50.80
2017-06-18T22:04:02.922Z,50.70
2017-06-18T22:06:31.458Z,51.00
2017-06-18T22:08:59.115Z,50.80
2017-06-18T22:11:26.719Z,50.90
2017-06-18T22:13:54.313Z,51.00
2017-06-18T22:16:21.890Z,51.30
2017-06-18T22:18:49.479Z,51.30
2017-06-18T22:21:17.068Z,51.80
2017-06-18T22:23:45.427Z,51.50
2017-06-18T22:26:13.014Z,51.50
2017-06-18T22:28:40.630Z,51.60
2017-06-18T22:31:08.358Z,52.00
2017-06-18T22:33:35.966Z,52.30
2017-06-18T22:36:03.594Z,52.80
2017-06-18T22:38:31.481Z,52.50
2017-06-18T22:40:59.071Z,52.60
2017-06-18T22:43:27.595Z,53.00
2017-06-18T22:45:55.219Z,52.90
2017-06-18T22:48:23.551Z,53.50
2017-06-18T22:50:51.154Z,53.30
2017-06-18T22:53:18.731Z,53.10
2017-06-18T22:55:46.338Z,53.20
2017-06-18T22:58:13.915Z,53.20
2017-06-18T23:00:41.490Z,53.60
2017-06-18T23:03:09.080Z,53.80
2017-06-18T23:05:36.649Z,53.60
2017-06-18T23:08:04.535Z,53.60
2017-06-18T23:10:32.115Z,54.00
2017-06-18T23:12:59.706Z,54.20
2017-06-18T23:15:27.302Z,54.90
2017-06-18T23:17:54.880Z,54.70
2017-06-18T23:20:22.495Z,54.60
2017-06-18T23:22:50.081Z,54.80
2017-06-18T23:25:17.708Z,54.80
2017-06-18T23:27:45.284Z,54.70
2017-06-18T23:30:12.847Z,55.00
2017-06-18T23:32:40.436Z,55.10
2017-06-18T23:35:08.021Z,55.40
2017-06-18T23:37:36.367Z,55.80
2017-06-18T23:40:03.954Z,55.80
2017-06-18T23:42:31.581Z,55.90
2017-06-18T23:44:59.194Z,56.80
2017-06-18T23:47:26.785Z,56.40
2017-06-18T23:49:54.390Z,56.10
2017-06-18T23:52:22.735Z,56.50
2017-06-18T23:54:50.339Z,56.50
2017-06-18T23:57:17.929Z,56.40
2017-06-18T23:59:45.542Z,56.40
